createdAt,value
2022-09-23T00:02:03.809Z,10.90
2022-09-23T00:04:33.123Z,15.68
2022-09-23T00:07:01.019Z,13.73
2022-09-23T00:09:28.863Z,10.20
2022-09-23T00:11:56.769Z,9.02
2022-09-23T00:14:24.910Z,11.27
2022-09-23T00:16:52.963Z,7.90
2022-09-23T00:19:21.625Z,11.38
2022-09-23T00:21:50.857Z,12.93
2022-09-23T00:24:19.667Z,9.98
2022-09-23T00:26:47.926Z,8.63
2022-09-23T00:29:15.982Z,12.13
2022-09-23T00:31:43.882Z,7.22
2022-09-23T00:34:12.569Z,11.88
2022-09-23T00:36:40.456Z,9.68
2022-09-23T00:39:09.804Z,8.55
2022-09-23T00:41:37.975Z,10.00
2022-09-23T00:44:39.224Z,9.57
2022-09-23T00:47:13.770Z,9.73
2022-09-23T00:49:41.995Z,9.55
2022-09-23T00:52:14.180Z,10.63
2022-09-23T00:54:44.441Z,10.38
2022-09-23T00:57:13.563Z,10.77
2022-09-23T00:59:41.822Z,7.38
2022-09-23T01:02:10.996Z,11.77
2022-09-23T01:04:39.095Z,20.23
2022-09-23T01:07:07.047Z,10.93
2022-09-23T01:09:35.320Z,14.88
2022-09-23T01:12:16.276Z,9.95
2022-09-23T01:14:50.755Z,9.45
2022-09-23T01:17:27.369Z,9.93
2022-09-23T01:20:22.087Z,9.65
2022-09-23T01:22:58.199Z,11.27
2022-09-23T01:25:40.756Z,10.75
2022-09-23T01:28:29.065Z,13.07
2022-09-23T01:31:04.174Z,12.70
2022-09-23T01:33:40.419Z,12.15
2022-09-23T01:36:17.311Z,12.20
2022-09-23T01:38:59.201Z,14.55
2022-09-23T01:41:48.093Z,14.48
2022-09-23T01:44:21.625Z,13.02
2022-09-23T01:46:54.960Z,12.48
2022-09-23T01:49:27.511Z,14.65
2022-09-23T01:52:00.814Z,13.55
2022-09-23T01:54:38.512Z,11.52
2022-09-23T01:57:10.967Z,12.52
2022-09-23T01:59:41.494Z,13.90
2022-09-23T02:02:16.123Z,12.45
2022-09-23T02:04:51.443Z,10.60
2022-09-23T02:07:23.357Z,13.23
2022-09-23T02:09:57.125Z,14.85
2022-09-23T02:12:29.357Z,14.13
2022-09-23T02:15:00.962Z,13.05
2022-09-23T02:17:35.224Z,12.02
2022-09-23T02:20:06.339Z,11.45
2022-09-23T02:22:42.020Z,10.13
2022-09-23T02:25:13.157Z,9.88
2022-09-23T02:27:47.383Z,11.60
2022-09-23T02:30:21.418Z,12.20
2022-09-23T02:32:55.660Z,13.15
2022-09-23T02:35:33.149Z,10.98
2022-09-23T02:38:14.534Z,10.07
2022-09-23T02:40:53.775Z,14.98
2022-09-23T02:43:28.052Z,13.40
2022-09-23T02:45:56.201Z,10.98
2022-09-23T02:48:28.595Z,12.63
2022-09-23T02:50:56.783Z,15.00
2022-09-23T02:53:25.202Z,10.85
2022-09-23T02:55:53.152Z,10.65
2022-09-23T02:58:21.259Z,10.02
2022-09-23T03:01:02.143Z,10.68
2022-09-23T03:03:45.162Z,11.35
2022-09-23T03:06:22.545Z,14.35
2022-09-23T03:08:56.386Z,14.70
2022-09-23T03:11:24.708Z,11.55
2022-09-23T03:14:03.992Z,16.02
2022-09-23T03:16:40.744Z,12.73
2022-09-23T03:19:20.909Z,18.23
2022-09-23T03:21:56.728Z,13.55
2022-09-23T03:24:25.828Z,13.65
2022-09-23T03:26:55.689Z,11.63
2022-09-23T03:29:24.494Z,10.85
2022-09-23T03:34:51.575Z,10.57
2022-09-23T03:37:25.233Z,9.38
2022-09-23T03:39:58.190Z,14.63
2022-09-23T03:42:30.134Z,17.98
2022-09-23T03:44:58.807Z,16.70
2022-09-23T03:47:29.092Z,13.70
2022-09-23T03:49:58.457Z,15.73
2022-09-23T03:52:27.755Z,14.63
2022-09-23T03:54:55.774Z,15.20
2022-09-23T03:57:24.789Z,14.25
2022-09-23T03:59:53.411Z,12.13
2022-09-23T04:02:21.973Z,12.30
2022-09-23T04:04:50.082Z,14.00
2022-09-23T04:07:19.788Z,14.05
2022-09-23T04:09:47.733Z,12.95
2022-09-23T04:12:17.201Z,11.38
2022-09-23T04:14:45.831Z,13.45
2022-09-23T04:17:13.919Z,14.55
2022-09-23T04:19:42.182Z,14.63
2022-09-23T04:22:10.241Z,16.55
2022-09-23T04:24:39.527Z,16.88
2022-09-23T04:27:07.475Z,19.05
2022-09-23T04:29:35.356Z,20.95
2022-09-23T04:32:03.916Z,16.77
2022-09-23T04:34:31.934Z,22.25
2022-09-23T04:36:59.836Z,15.27
2022-09-23T04:39:27.850Z,17.92
2022-09-23T04:41:57.230Z,17.30
2022-09-23T04:44:25.563Z,16.38
2022-09-23T04:46:53.550Z,14.70
2022-09-23T04:49:21.687Z,13.52
2022-09-23T04:51:49.638Z,12.45
2022-09-23T04:54:17.561Z,15.93
2022-09-23T04:56:45.445Z,13.80
2022-09-23T04:59:14.842Z,15.05
2022-09-23T05:01:43.055Z,17.65
2022-09-23T05:04:14.308Z,13.32
2022-09-23T05:06:44.982Z,15.38
2022-09-23T05:09:16.443Z,16.63
2022-09-23T05:11:44.985Z,20.80
2022-09-23T05:14:14.274Z,21.98
2022-09-23T05:16:42.255Z,16.75
2022-09-23T05:19:10.237Z,18.33
2022-09-23T05:21:38.213Z,22.85
2022-09-23T05:24:06.603Z,23.73
2022-09-23T05:26:34.619Z,39.00
2022-09-23T05:29:02.521Z,32.63
2022-09-23T05:31:32.471Z,37.65
2022-09-23T05:34:03.949Z,45.90
2022-09-23T05:36:37.941Z,44.58
2022-09-23T05:39:07.669Z,48.40
2022-09-23T05:41:36.054Z,46.30
2022-09-23T05:44:04.160Z,47.85
2022-09-23T05:46:33.996Z,50.97
2022-09-23T05:51:32.397Z,57.20
2022-09-23T05:54:02.889Z,62.53
2022-09-23T05:56:31.428Z,73.22
2022-09-23T05:59:01.742Z,62.10
2022-09-23T06:01:32.240Z,60.25
2022-09-23T06:04:03.059Z,67.55
2022-09-23T06:06:32.615Z,84.38
2022-09-23T06:09:01.069Z,65.85
2022-09-23T06:11:31.610Z,91.45
2022-09-23T06:14:02.020Z,82.00
2022-09-23T06:16:31.800Z,83.43
2022-09-23T06:19:05.931Z,79.90
2022-09-23T06:21:35.247Z,78.70
2022-09-23T06:24:03.774Z,80.18
2022-09-23T06:26:33.789Z,63.70
2022-09-23T06:29:02.930Z,64.45
2022-09-23T06:31:32.023Z,73.57
2022-09-23T06:34:10.547Z,85.93
2022-09-23T06:39:12.976Z,66.93
2022-09-23T06:41:40.860Z,60.65
2022-09-23T06:44:08.722Z,55.53
2022-09-23T06:46:36.938Z,50.15
2022-09-23T06:49:06.340Z,45.28
2022-09-23T06:51:34.565Z,39.05
2022-09-23T06:54:02.647Z,32.13
2022-09-23T06:56:36.141Z,35.15
2022-09-23T06:59:07.007Z,20.38
2022-09-23T07:01:35.554Z,24.40
2022-09-23T07:04:03.661Z,17.10
2022-09-23T07:06:33.026Z,14.88
2022-09-23T07:09:01.241Z,11.75
2022-09-23T07:11:29.120Z,11.52
2022-09-23T07:13:57.027Z,11.40
2022-09-23T07:16:24.994Z,7.57
2022-09-23T07:18:53.457Z,9.05
2022-09-23T07:21:21.513Z,8.93
2022-09-23T07:23:51.975Z,9.77
2022-09-23T07:26:21.120Z,8.57
2022-09-23T07:28:49.134Z,8.50
2022-09-23T07:31:30.691Z,7.70
2022-09-23T07:34:03.230Z,7.72
2022-09-23T07:36:32.680Z,7.25
2022-09-23T07:39:02.260Z,7.22
2022-09-23T07:41:31.894Z,9.60
2022-09-23T07:44:00.583Z,7.20
2022-09-23T07:46:31.082Z,7.45
2022-09-23T07:48:59.541Z,6.45
2022-09-23T07:51:34.753Z,6.75
2022-09-23T07:54:07.900Z,10.02
2022-09-23T07:56:37.271Z,5.10
2022-09-23T07:59:06.044Z,4.73
2022-09-23T08:01:36.761Z,8.57
2022-09-23T08:04:07.254Z,9.70
2022-09-23T08:06:35.803Z,11.73
2022-09-23T08:09:05.564Z,5.88
2022-09-23T08:14:01.366Z,4.38
2022-09-23T08:16:29.366Z,5.90
2022-09-23T08:18:57.278Z,5.88
2022-09-23T08:21:25.287Z,8.85
2022-09-23T08:23:53.140Z,7.55
2022-09-23T08:26:22.618Z,5.03
2022-09-23T08:28:54.486Z,7.60
2022-09-23T08:31:23.226Z,5.70
2022-09-23T08:33:56.636Z,5.97
2022-09-23T08:36:25.261Z,3.55
2022-09-23T08:38:53.204Z,5.25
2022-09-23T08:41:30.382Z,3.90
2022-09-23T08:44:03.959Z,7.70
2022-09-23T08:46:36.260Z,3.70
2022-09-23T08:49:07.651Z,5.20
2022-09-23T08:51:42.428Z,3.95
2022-09-23T08:54:11.749Z,5.45
2022-09-23T08:56:43.529Z,3.50
2022-09-23T08:59:15.791Z,5.15
2022-09-23T09:01:46.235Z,4.68
2022-09-23T09:04:21.344Z,2.42
2022-09-23T09:06:55.901Z,2.22
2022-09-23T09:09:31.981Z,3.25
2022-09-23T09:12:08.115Z,2.40
2022-09-23T09:14:44.344Z,3.17
2022-09-23T09:17:24.642Z,5.70
2022-09-23T09:19:57.519Z,4.82
2022-09-23T09:22:48.020Z,2.35
2022-09-23T09:25:37.306Z,2.85
2022-09-23T09:28:16.502Z,2.95
2022-09-23T09:30:48.549Z,2.85
2022-09-23T09:33:19.071Z,2.90
2022-09-23T09:36:08.752Z,2.72
2022-09-23T09:38:37.154Z,3.15
2022-09-23T09:41:14.700Z,2.65
2022-09-23T09:43:48.296Z,4.85
2022-09-23T09:46:34.207Z,2.38
2022-09-23T09:49:06.495Z,7.05
2022-09-23T09:51:35.540Z,4.88
2022-09-23T09:54:18.577Z,2.47
2022-09-23T09:59:22.967Z,6.40
2022-09-23T10:01:51.030Z,3.72
2022-09-23T10:04:24.932Z,4.05
2022-09-23T10:07:07.299Z,4.57
2022-09-23T10:09:37.604Z,3.33
2022-09-23T10:12:14.830Z,4.70
2022-09-23T10:14:44.343Z,2.00
2022-09-23T10:17:18.804Z,5.13
2022-09-23T10:19:49.374Z,3.00
2022-09-23T10:22:26.220Z,2.75
2022-09-23T10:24:55.507Z,4.78
2022-09-23T10:27:32.448Z,5.28
2022-09-23T10:30:03.717Z,2.92
2022-09-23T10:32:36.322Z,3.15
2022-09-23T10:35:15.583Z,4.68
2022-09-23T10:37:46.129Z,3.42
2022-09-23T10:40:38.098Z,1.60
2022-09-23T10:43:45.430Z,2.35
2022-09-23T10:46:37.885Z,1.90
2022-09-23T10:49:31.013Z,2.17
2022-09-23T10:52:18.279Z,2.70
2022-09-23T10:55:00.004Z,4.80
2022-09-23T10:57:42.470Z,1.73
2022-09-23T11:00:22.198Z,3.58
2022-09-23T11:03:12.891Z,2.33
2022-09-23T11:05:51.089Z,2.20
2022-09-23T11:08:37.994Z,1.73
2022-09-23T11:11:17.411Z,2.03
2022-09-23T11:14:04.092Z,4.28
2022-09-23T11:16:50.939Z,2.95
2022-09-23T11:19:44.745Z,2.92
2022-09-23T11:22:37.554Z,2.20
2022-09-23T11:25:25.794Z,1.80
2022-09-23T11:28:32.899Z,5.68
2022-09-23T11:31:10.229Z,2.25
2022-09-23T11:33:53.398Z,5.40
2022-09-23T11:36:27.943Z,3.10
2022-09-23T11:38:58.936Z,3.28
2022-09-23T11:41:29.805Z,2.08
2022-09-23T11:44:04.190Z,2.88
2022-09-23T11:46:37.667Z,2.90
2022-09-23T11:49:12.545Z,2.67
2022-09-23T11:52:00.245Z,5.63
2022-09-23T11:54:35.243Z,4.57
2022-09-23T11:57:07.609Z,2.90
2022-09-23T11:59:43.829Z,3.10
2022-09-23T12:02:22.920Z,2.20
2022-09-23T12:05:01.114Z,3.28
2022-09-23T12:07:39.586Z,2.58
2022-09-23T12:10:09.586Z,2.47
2022-09-23T12:12:47.682Z,3.95
2022-09-23T12:15:26.954Z,2.42
2022-09-23T12:18:35.946Z,4.13
2022-09-23T12:21:54.487Z,5.57
2022-09-23T12:24:51.601Z,3.85
2022-09-23T12:27:33.180Z,5.45
2022-09-23T12:30:03.981Z,3.20
2022-09-23T12:32:33.067Z,3.55
2022-09-23T12:35:02.712Z,3.10
2022-09-23T12:37:35.519Z,5.50
2022-09-23T12:40:09.236Z,3.15
2022-09-23T12:42:44.719Z,4.05
2022-09-23T12:45:34.724Z,3.33
2022-09-23T12:48:04.227Z,4.40
2022-09-23T12:50:53.176Z,3.22
2022-09-23T12:53:55.967Z,4.10
2022-09-23T12:56:50.479Z,2.78
2022-09-23T12:59:30.469Z,5.45
2022-09-23T13:02:06.277Z,2.72
2022-09-23T13:05:01.170Z,4.78
2022-09-23T13:07:32.124Z,2.75
2022-09-23T13:10:09.425Z,3.60
2022-09-23T13:12:41.026Z,2.95
2022-09-23T13:15:19.127Z,4.50
2022-09-23T13:17:47.014Z,3.35
2022-09-23T13:20:34.182Z,5.03
2022-09-23T13:23:22.767Z,4.70
2022-09-23T13:25:53.213Z,4.43
2022-09-23T13:28:32.119Z,3.38
2022-09-23T13:31:03.428Z,4.45
2022-09-23T13:33:39.372Z,7.05
2022-09-23T13:36:13.102Z,2.78
2022-09-23T13:38:41.076Z,2.97
2022-09-23T13:41:14.820Z,3.53
2022-09-23T13:43:46.408Z,4.15
2022-09-23T13:46:18.367Z,3.72
2022-09-23T13:48:48.901Z,4.70
2022-09-23T13:51:22.845Z,3.88
2022-09-23T13:53:54.543Z,3.13
2022-09-23T13:56:23.108Z,4.07
2022-09-23T13:58:52.445Z,2.20
2022-09-23T14:01:30.240Z,3.60
2022-09-23T14:03:58.126Z,3.80
2022-09-23T14:06:27.783Z,3.63
2022-09-23T14:08:56.485Z,5.18
2022-09-23T14:11:30.592Z,3.20
2022-09-23T14:14:05.908Z,3.35
2022-09-23T14:16:37.215Z,3.20
2022-09-23T14:19:05.533Z,4.53
2022-09-23T14:21:35.749Z,3.65
2022-09-23T14:24:14.697Z,3.53
2022-09-23T14:26:45.188Z,4.30
2022-09-23T14:29:18.230Z,12.68
2022-09-23T14:31:56.954Z,5.10
2022-09-23T14:34:46.385Z,3.97
2022-09-23T14:37:40.919Z,7.57
2022-09-23T14:40:14.461Z,3.92
2022-09-23T14:42:45.213Z,6.47
2022-09-23T14:45:19.171Z,5.63
2022-09-23T14:47:50.357Z,9.07
2022-09-23T14:50:47.363Z,6.60
2022-09-23T14:53:36.677Z,2.78
2022-09-23T14:56:25.883Z,3.67
2022-09-23T14:58:55.848Z,3.78
2022-09-23T15:01:43.099Z,4.00
2022-09-23T15:04:14.659Z,5.38
2022-09-23T15:06:48.910Z,3.05
2022-09-23T15:09:23.631Z,6.07
2022-09-23T15:11:58.285Z,3.33
2022-09-23T15:14:37.818Z,3.70
2022-09-23T15:17:16.056Z,3.38
2022-09-23T15:19:44.478Z,4.60
2022-09-23T15:22:12.995Z,4.05
2022-09-23T15:24:45.864Z,4.53
2022-09-23T15:27:31.807Z,4.05
2022-09-23T15:30:15.070Z,4.53
2022-09-23T15:32:44.648Z,7.22
2022-09-23T15:35:16.738Z,6.85
2022-09-23T15:37:46.099Z,3.72
2022-09-23T15:40:21.162Z,6.78
2022-09-23T15:42:51.563Z,4.78
2022-09-23T15:45:22.143Z,4.93
2022-09-23T15:47:52.289Z,8.18
2022-09-23T15:50:20.819Z,4.13
2022-09-23T15:52:48.796Z,8.70
2022-09-23T15:55:18.239Z,4.43
2022-09-23T15:57:46.185Z,5.28
2022-09-23T16:00:15.945Z,6.97
2022-09-23T16:02:46.510Z,6.20
2022-09-23T16:05:22.665Z,8.60
2022-09-23T16:07:52.138Z,6.90
2022-09-23T16:10:21.864Z,7.15
2022-09-23T16:12:50.655Z,7.30
2022-09-23T16:15:20.562Z,8.90
2022-09-23T16:20:18.222Z,9.27
2022-09-23T16:25:17.019Z,10.85
2022-09-23T16:27:44.960Z,9.52
2022-09-23T16:30:13.561Z,8.23
2022-09-23T16:32:41.408Z,5.32
2022-09-23T16:35:10.351Z,6.30
2022-09-23T16:37:39.652Z,9.18
2022-09-23T16:40:09.770Z,7.45
2022-09-23T16:42:38.263Z,8.68
2022-09-23T16:45:07.045Z,9.35
2022-09-23T16:47:35.004Z,8.80
2022-09-23T16:50:02.837Z,12.57
2022-09-23T16:52:31.041Z,15.13
2022-09-23T16:55:00.525Z,14.50
2022-09-23T16:57:29.883Z,19.33
2022-09-23T17:00:15.131Z,16.40
2022-09-23T17:03:00.427Z,12.60
2022-09-23T17:05:28.858Z,12.95
2022-09-23T17:07:57.531Z,15.55
2022-09-23T17:10:26.756Z,12.48
2022-09-23T17:12:54.795Z,17.08
2022-09-23T17:15:22.738Z,15.98
2022-09-23T17:17:50.593Z,14.25
2022-09-23T17:20:20.068Z,15.50
2022-09-23T17:22:48.248Z,13.30
2022-09-23T17:25:16.446Z,13.85
2022-09-23T17:27:45.666Z,15.85
2022-09-23T17:30:14.313Z,22.85
2022-09-23T17:32:42.296Z,25.75
2022-09-23T17:35:11.300Z,22.25
2022-09-23T17:37:39.162Z,16.17
2022-09-23T17:40:08.319Z,18.83
2022-09-23T17:42:42.023Z,21.10
2022-09-23T17:45:12.423Z,18.67
2022-09-23T17:47:41.890Z,23.55
2022-09-23T17:50:10.321Z,29.70
2022-09-23T17:52:38.136Z,32.17
2022-09-23T17:55:07.211Z,18.65
2022-09-23T17:57:35.092Z,25.30
2022-09-23T18:00:03.649Z,35.60
2022-09-23T18:02:32.934Z,61.03
2022-09-23T18:05:00.816Z,45.65
2022-09-23T18:07:28.730Z,22.75
2022-09-23T18:09:56.627Z,38.85
2022-09-23T18:12:24.502Z,47.33
2022-09-23T18:14:52.386Z,30.27
2022-09-23T18:17:20.318Z,25.40
2022-09-23T18:19:50.292Z,32.90
2022-09-23T18:24:46.020Z,20.38
2022-09-23T18:27:13.876Z,14.20
2022-09-23T18:29:41.772Z,13.88
2022-09-23T18:32:13.973Z,15.52
2022-09-23T18:34:42.170Z,19.83
2022-09-23T18:37:15.757Z,21.38
2022-09-23T18:39:44.649Z,23.55
2022-09-23T18:42:13.553Z,20.67
2022-09-23T18:44:41.646Z,30.13
2022-09-23T18:47:29.546Z,35.65
2022-09-23T18:50:14.742Z,35.67
2022-09-23T18:52:44.007Z,27.88
2022-09-23T18:55:12.687Z,27.92
2022-09-23T18:57:41.125Z,41.63
2022-09-23T19:00:10.523Z,42.88
2022-09-23T19:02:38.424Z,40.40
2022-09-23T19:05:07.130Z,38.85
2022-09-23T19:07:35.377Z,31.02
2022-09-23T19:10:05.366Z,31.52
2022-09-23T19:12:33.224Z,30.02
2022-09-23T19:15:01.328Z,32.50
2022-09-23T19:17:30.132Z,31.17
2022-09-23T19:19:58.532Z,28.25
2022-09-23T19:22:26.666Z,30.33
2022-09-23T19:24:54.518Z,31.38
2022-09-23T19:27:23.842Z,28.63
2022-09-23T19:29:51.699Z,25.98
2022-09-23T19:32:19.537Z,24.60
2022-09-23T19:34:47.828Z,28.23
2022-09-23T19:37:16.579Z,35.90
2022-09-23T19:39:44.690Z,38.22
2022-09-23T19:42:12.686Z,34.38
2022-09-23T19:44:41.899Z,30.90
2022-09-23T19:47:15.341Z,28.35
2022-09-23T19:49:43.385Z,33.33
2022-09-23T19:52:11.237Z,34.90
2022-09-23T19:54:39.184Z,30.55
2022-09-23T19:57:07.074Z,34.70
2022-09-23T19:59:34.939Z,51.88
2022-09-23T20:02:04.230Z,47.38
2022-09-23T20:04:32.986Z,48.95
2022-09-23T20:07:01.087Z,37.97
2022-09-23T20:09:28.977Z,41.88
2022-09-23T20:11:57.197Z,41.20
2022-09-23T20:14:27.035Z,40.97
2022-09-23T20:19:24.976Z,36.95
2022-09-23T20:24:40.691Z,33.13
2022-09-23T20:27:10.825Z,33.13
2022-09-23T20:29:38.958Z,32.67
2022-09-23T20:32:07.076Z,34.00
2022-09-23T20:34:36.290Z,31.80
2022-09-23T20:37:05.566Z,24.42
2022-09-23T20:39:33.851Z,30.02
2022-09-23T20:42:02.625Z,28.95
2022-09-23T20:44:30.936Z,25.85
2022-09-23T20:46:58.989Z,29.15
2022-09-23T20:49:26.917Z,30.50
2022-09-23T20:51:56.135Z,28.63
2022-09-23T20:54:24.001Z,32.30
2022-09-23T20:56:53.401Z,34.08
2022-09-23T20:59:21.296Z,33.75
2022-09-23T21:01:53.971Z,32.63
2022-09-23T21:04:22.536Z,25.45
2022-09-23T21:06:50.756Z,27.08
2022-09-23T21:09:20.683Z,26.75
2022-09-23T21:14:16.365Z,29.52
2022-09-23T21:16:45.158Z,26.67
2022-09-23T21:19:13.628Z,23.45
2022-09-23T21:21:41.531Z,23.60
2022-09-23T21:24:40.007Z,21.60
2022-09-23T21:26:58.945Z,20.95
2022-09-23T21:29:27.653Z,25.83
2022-09-23T21:31:55.571Z,22.20
2022-09-23T21:34:26.047Z,24.08
2022-09-23T21:36:57.483Z,26.70
2022-09-23T21:39:25.574Z,18.42
2022-09-23T21:41:54.391Z,20.00
2022-09-23T21:44:23.776Z,17.45
2022-09-23T21:46:51.836Z,19.38
2022-09-23T21:49:20.437Z,22.73
2022-09-23T21:51:51.411Z,21.58
2022-09-23T21:54:19.572Z,17.33
2022-09-23T21:56:47.966Z,20.75
2022-09-23T21:59:15.836Z,14.88
2022-09-23T22:01:45.291Z,20.35
2022-09-23T22:04:16.869Z,15.80
2022-09-23T22:06:45.295Z,16.42
2022-09-23T22:09:14.619Z,17.83
2022-09-23T22:12:01.006Z,20.08
2022-09-23T22:14:30.663Z,13.45
2022-09-23T22:17:03.824Z,16.73
2022-09-23T22:19:35.467Z,13.00
2022-09-23T22:22:06.835Z,15.65
2022-09-23T22:24:34.731Z,15.82
2022-09-23T22:27:02.662Z,11.63
2022-09-23T22:29:48.634Z,12.02
2022-09-23T22:32:43.788Z,13.40
2022-09-23T22:35:16.483Z,15.93
2022-09-23T22:37:45.312Z,13.63
2022-09-23T22:40:15.568Z,15.60
2022-09-23T22:42:44.277Z,14.38
2022-09-23T22:45:13.605Z,19.33
2022-09-23T22:47:45.033Z,15.40
2022-09-23T22:50:14.991Z,15.85
2022-09-23T22:52:43.117Z,12.27
2022-09-23T22:55:11.287Z,16.38
2022-09-23T22:57:39.312Z,15.73
2022-09-23T23:00:11.646Z,14.30
2022-09-23T23:02:40.525Z,13.00
2022-09-23T23:05:10.261Z,14.18
2022-09-23T23:07:38.196Z,14.50
2022-09-23T23:10:10.273Z,14.43
2022-09-23T23:12:39.588Z,13.20
2022-09-23T23:15:10.561Z,12.07
2022-09-23T23:17:40.383Z,10.65
2022-09-23T23:20:13.021Z,13.02
2022-09-23T23:22:41.390Z,14.30
2022-09-23T23:25:10.530Z,11.90
2022-09-23T23:27:38.686Z,13.63
2022-09-23T23:30:08.642Z,16.30
2022-09-23T23:32:36.548Z,15.85
2022-09-23T23:35:04.890Z,14.80
2022-09-23T23:37:34.130Z,11.95
2022-09-23T23:40:02.212Z,16.02
2022-09-23T23:42:31.366Z,15.38
2022-09-23T23:44:59.812Z,14.77
2022-09-23T23:47:27.687Z,14.70
2022-09-23T23:49:55.558Z,14.32
2022-09-23T23:52:23.445Z,14.63
2022-09-23T23:54:52.674Z,19.67
2022-09-23T23:57:20.516Z,14.63
2022-09-23T23:59:48.337Z,13.45
